• Join FlightAware (Why Join?)
  • Login
  • US Flag 
04:29AM EDT


 

Airport Tracker/Info


-or-


 

Live Flight TrackerFlight Track Log ✈ GJS3615 ✈ 30-Apr-2013 ✈ KORD - KGSO

Flight Track Log - Related Links

Times and Time Zones

All times are in EDT time to prevent confusion due to time zone crossing. See the GJS3615 flight status page for this flight to view local times or setup timezone preferences in your user account.

Time Position Orientation Groundspeed Altitude Reporting Facility
EDT Latitude Longitude Course Direction KTS MPH feet Rate Location/Type
09:58AM 41.9500 -87.9000 166° South 146 168 1,600  Level Chicago TRACON
09:59AM 41.9000 -87.8833 166° South 213 245 3,600 2,520 Climbing Chicago TRACON
10:01AM 41.7475 -87.8161 162° South 269 310 10,300 3,000 Climbing Chicago Center
10:02AM 41.6231 -87.3565 153° Southeast  Level Estimated
10:02AM 41.6636 -87.7533 151° Southeast 285 328 14,100  Level Chicago Center
10:03AM 41.5511 -87.2471 166° South  Level Estimated
10:03AM 41.5844 -87.6933 150° Southeast 332 382 15,500  Level Chicago Center
10:04AM 41.4950 -87.6250 150° Southeast 363 418 17,100 1,500 Climbing Chicago Center
10:05AM 41.3908 -87.5692 158° South 403 464 18,700 1,500 Climbing Chicago Center
10:06AM 41.2764 -87.5467 172° South 413 475 20,200 1,440 Climbing Chicago Center
10:07AM 41.1592 -87.5242 172° South 422 486 21,700 1,440 Climbing Chicago Center
10:08AM 41.0372 -87.4903 168° South 443 510 23,200 1,560 Climbing Chicago Center
10:09AM 40.8883 -87.4503 169° South 453 521 25,000 1,560 Climbing Chicago Center
10:10AM 40.7633 -87.4175 169° South 458 527 26,500 1,500 Climbing Chicago Center
10:11AM 40.6389 -87.3825 168° South 458 527 28,100 1,440 Climbing Chicago Center
10:12AM 40.5119 -87.3533 170° South 464 534 29,500 1,200 Climbing Chicago Center
10:14AM 40.3981 -87.2858 156° South 456 525 30,700 1,080 Climbing Chicago Center
10:15AM 40.2939 -87.1861 144° Southeast 462 532 31,800 1,080 Climbing Chicago Center
10:16AM 40.1658 -87.0683 145° Southeast 469 540 33,000 1,020 Climbing Chicago Center
10:16AM 40.1194 -87.0267 146° Southeast 466 536 33,500 600 Climbing Indianapolis Center
10:17AM 40.0119 -86.9272 145° Southeast 468 539 34,000 240 Climbing Indianapolis Center
10:18AM 39.9003 -86.7711 133° Southeast 490 564 34,000 60 Level Indianapolis Center
10:19AM 39.8272 -86.6222 123° Southeast 487 560 34,200 480 Climbing Indianapolis Center
10:20AM 39.7594 -86.4697 120° Southeast 488 562 35,000 360 Climbing Indianapolis Center
10:21AM 39.7056 -86.3081 113° Southeast 486 559 35,000  Level Indianapolis Center
10:22AM 39.6522 -86.1447 113° Southeast 488 562 35,000 480 Level Indianapolis Center
10:23AM 39.5972 -85.9806 113° Southeast 491 565 36,000 960 Climbing Indianapolis Center
10:24AM 39.5208 -85.8403 125° Southeast 477 549 37,000 960 Climbing Indianapolis Center
10:25AM 39.4428 -85.7003 126° Southeast 476 548 38,000 960 Climbing Indianapolis Center
10:26AM 39.3611 -85.5528 126° Southeast 460 529 39,000 480 Climbing Indianapolis Center
10:28AM 39.2847 -85.4178 126° Southeast 462 532 39,000  Level Indianapolis Center
10:29AM 39.2069 -85.2797 126° Southeast 470 541 39,000  Level Indianapolis Center
10:30AM 39.1208 -85.1278 126° Southeast 476 548 39,000  Level Indianapolis Center
10:31AM 39.0414 -84.9892 126° Southeast 479 551 39,000  Level Indianapolis Center
10:32AM 38.9556 -84.8392 126° Southeast 482 555 39,000  Level Indianapolis Center
10:33AM 38.8703 -84.6922 127° Southeast 479 551 39,000  Level Indianapolis Center
10:34AM 38.7900 -84.5539 127° Southeast 481 554 39,000  Level Indianapolis Center
10:35AM 38.7142 -84.4231 127° Southeast 484 557 39,000  Level Indianapolis Center
10:36AM 38.6267 -84.2822 128° Southeast 480 552 39,000  Level Indianapolis Center
10:37AM 38.5300 -84.1614 136° Southeast 485 558 39,000  Level Indianapolis Center
10:38AM 38.4183 -84.0203 135° Southeast 484 557 39,000  Level Indianapolis Center
10:39AM 38.3214 -83.8981 135° Southeast 488 562 39,000  Level Indianapolis Center
10:40AM 38.2236 -83.7753 135° Southeast 492 566 39,000 -360 Level Indianapolis Center
10:41AM 38.1256 -83.6536 136° Southeast 492 566 38,300 -900 Descending Indianapolis Center
10:42AM 38.0275 -83.5339 136° Southeast 488 562 37,200 -1,080 Descending Indianapolis Center
10:43AM 37.9319 -83.4142 135° Southeast 481 554 36,100 -1,200 Descending Indianapolis Center
10:44AM 37.8197 -83.2758 136° Southeast 481 554 34,800 -1,200 Descending Indianapolis Center
10:45AM 37.7219 -83.1561 136° Southeast 485 558 33,700 -1,080 Descending Indianapolis Center
10:46AM 37.6247 -83.0381 136° Southeast 484 557 32,600 -1,080 Descending Indianapolis Center
10:47AM 37.5269 -82.9200 136° Southeast 484 557 31,500 -1,080 Descending Indianapolis Center
10:48AM 37.4286 -82.8008 136° Southeast 486 559 30,400 -1,080 Descending Indianapolis Center
10:49AM 37.3297 -82.6806 136° Southeast 489 563 29,300 -1,140 Descending Indianapolis Center
10:50AM 37.2303 -82.5622 137° Southeast 489 563 28,100 -1,140 Descending Indianapolis Center
10:51AM 37.1164 -82.4258 136° Southeast 482 555 27,000 -720 Descending Indianapolis Center
10:52AM 37.0622 -82.3586 135° Southeast 486 559 27,000 -720 Level Atlanta Center
10:53AM 36.9647 -82.2489 138° Southeast 479 551 25,900 -1,200 Descending Atlanta Center
10:54AM 36.8692 -82.1317 136° Southeast 479 551 24,700 -1,320 Descending Atlanta Center
10:55AM 36.7839 -82.0119 132° Southeast 474 545 23,300 -1,440 Descending Atlanta Center
10:56AM 36.7169 -81.8711 121° Southeast 474 545 21,900 -1,200 Descending Atlanta Center
10:57AM 36.6519 -81.7383 121° Southeast 455 524 21,000 -480 Descending Atlanta Center
10:58AM 36.5869 -81.6058 121° Southeast 449 517 21,000  Level Atlanta Center
10:59AM 36.5303 -81.4861 120° Southeast 443 510 21,000  Level Atlanta Center
11:00AM 36.4669 -81.3514 120° Southeast 449 517 21,000 -1,020 Level Atlanta Center
11:01AM 36.4014 -81.2219 122° Southeast 444 511 19,000 -2,100 Descending Atlanta Center
11:02AM 36.3400 -81.0978 122° Southeast 431 496 16,800 -2,280 Descending Atlanta Center
11:03AM 36.2786 -80.9764 122° Southeast 413 475 14,500 -2,340 Descending Atlanta Center
11:04AM 36.2128 -80.8450 122° Southeast 408 470 12,200 -1,800 Descending Atlanta Center
11:05AM 36.1578 -80.7367 122° Southeast 396 456 11,000 -600 Descending Atlanta Center
11:06AM 36.1253 -80.6172 109° East 370 426 11,000 -60 Level Atlanta Center
11:07AM 36.1097 -80.5075 100° East 365 420 10,900 -900 Descending Atlanta Center
11:08AM 36.0631 -80.4144 122° Southeast 336 387 9,300 -2,400 Descending Atlanta Center
11:09AM 36.0167 -80.3267 123° Southeast 293 337 6,100 -2,820 Descending Atlanta Center
11:10AM 35.9769 -80.2489 122° Southeast 273 314 3,700 -1,560 Descending Atlanta Center
11:11AM 35.9392 -80.1814 125° Southeast 259 298 3,000 -360 Descending Atlanta Center
11:12AM 35.9142 -80.1133 114° Southeast 238 274 3,000  Level Atlanta Center
11:13AM 35.9678 -80.0953 15° North 141 162 3,000  Level Atlanta Center